Messwerte Island Lake

Temperatur

Temperatur
°C
1603227600 16.00 16.00 1
1603231200 17.00 17.00
1603234800 18.00 18.00
1603238400 19.00 19.00
1603242000 20.00 20.00
1603245600 21.00 21.00
1603249200 22.00 22.00
1603252800 23.00 23.00 0
1603256400 0.00 0.00 -1
1603260000 1.00 1.00 -1
1603263600 2.00 2.00 -1
1603267200 3.00 3.00 -1
1603270800 4.00 4.00 -1
1603274400 5.00 5.00
1603278000 6.00 6.00 -1
1603281600 7.00 7.00 -2
1603285200 8.00 8.00 -1
1603288800 9.00 9.00 -1
1603292400 10.00 10.00 -1
1603296000 11.00 11.00 0
1603299600 12.00 12.00 1
1603303200 13.00 13.00 0
1603306800 14.00 14.00 0
1603310400 15.00 15.00 0

Aktuellste Messwerte

Wettercharakter
Wetter: bedeckt, etwas Schnee
Temperatur
0 °C
Feuchtigkeit
75 %
Wind
5 km/hWindrichtung: Nordost
Luftdruck
1017 hPa
Messzeit: 21. Oktober 2020, 15.00Datenquelle: METAR

Weitere Messstationen in der Nähe

Messstation Temperatur Entfernung
Norway House -2 °C 210 km
George Island 1 °C 227 km
Berens River CS 0 °C 230 km
Berens River Airport 0 °C 230 km
Gillam -2 °C 278 km
Gillam -2 °C 280 km
Thompson -1 °C 299 km

Wind

Windrichtung Böen Mittelwind
° km/h km/h
1603227600 16.00 15.00 - 16.00 190° 15
1603231200 17.00 16.00 - 17.00
1603234800 18.00 17.00 - 18.00
1603238400 19.00 18.00 - 19.00
1603242000 20.00 19.00 - 20.00
1603245600 21.00 20.00 - 21.00
1603249200 22.00 21.00 - 22.00
1603252800 23.00 22.00 - 23.00 150° 10
1603256400 0.00 23.00 - 0.00 160° 10
1603260000 1.00 0.00 - 1.00 160° 5
1603263600 2.00 1.00 - 2.00 50° 5
1603267200 3.00 2.00 - 3.00 50° 5
1603270800 4.00 3.00 - 4.00 70° 5
1603274400 5.00 4.00 - 5.00
1603278000 6.00 5.00 - 6.00 5
1603281600 7.00 6.00 - 7.00 80° 5
1603285200 8.00 7.00 - 8.00 100° 10
1603288800 9.00 8.00 - 9.00 160° 10
1603292400 10.00 9.00 - 10.00 210° 5
1603296000 11.00 10.00 - 11.00 0
1603299600 12.00 11.00 - 12.00 0
1603303200 13.00 12.00 - 13.00 290° 5
1603306800 14.00 13.00 - 14.00 360° 5
1603310400 15.00 14.00 - 15.00 50° 5

Ihre Wetterstation

Fehlt Ihre Wetterstation auf unserem Portal?

Schreiben Sie an network@meteonews.ch

Klima

Wann ist es am wärmsten? Wann regnet es am wenigsten? Unsere Klimadaten geben Auskunft.